createdAt,value
2019-02-15T00:01:17.074Z,77.50
2019-02-15T00:03:44.794Z,77.00
2019-02-15T00:06:12.531Z,77.00
2019-02-15T00:08:40.446Z,76.90
2019-02-15T00:11:08.177Z,75.00
2019-02-15T00:13:35.913Z,75.60
2019-02-15T00:16:03.669Z,74.10
2019-02-15T00:18:49.385Z,73.60
2019-02-15T00:21:19.339Z,72.20
2019-02-15T00:23:47.047Z,72.50
2019-02-15T00:26:16.551Z,72.30
2019-02-15T00:28:44.332Z,71.90
2019-02-15T00:31:14.945Z,71.60
2019-02-15T00:33:42.745Z,71.80
2019-02-15T00:36:10.467Z,71.20
2019-02-15T00:38:38.205Z,71.40
2019-02-15T00:41:05.938Z,70.20
2019-02-15T00:43:33.700Z,70.00
2019-02-15T00:46:19.323Z,69.30
2019-02-15T00:48:47.161Z,69.40
2019-02-15T00:51:32.830Z,68.90
2019-02-15T00:54:18.691Z,68.60
2019-02-15T00:56:57.370Z,68.70
2019-02-15T00:59:35.189Z,68.20
2019-02-15T01:02:20.717Z,68.50
2019-02-15T01:05:04.818Z,68.10
2019-02-15T01:07:47.025Z,67.40
2019-02-15T01:10:46.399Z,67.60
2019-02-15T01:13:17.074Z,67.10
2019-02-15T01:15:44.845Z,66.70
2019-02-15T01:18:12.563Z,66.80
2019-02-15T01:20:40.293Z,66.40
2019-02-15T01:23:08.066Z,66.10
2019-02-15T01:25:44.621Z,65.20
2019-02-15T01:28:26.702Z,65.30
2019-02-15T01:31:16.633Z,65.60
2019-02-15T01:34:03.778Z,65.70
2019-02-15T01:36:50.967Z,65.00
2019-02-15T01:39:38.102Z,64.50
2019-02-15T01:42:25.265Z,64.40
2019-02-15T01:45:11.003Z,64.80
2019-02-15T01:47:44.990Z,63.50
2019-02-15T01:50:12.717Z,64.10
2019-02-15T01:52:40.449Z,63.70
2019-02-15T01:55:08.193Z,63.40
2019-02-15T01:57:35.922Z,64.40
2019-02-15T02:00:04.343Z,65.20
2019-02-15T02:02:32.089Z,65.60
2019-02-15T02:04:59.819Z,66.60
2019-02-15T02:07:27.545Z,67.00
2019-02-15T02:09:55.654Z,66.70
2019-02-15T02:12:23.573Z,65.10
2019-02-15T02:14:52.074Z,64.00
2019-02-15T02:17:19.941Z,63.50
2019-02-15T02:19:47.763Z,64.10
2019-02-15T02:22:15.489Z,63.40
2019-02-15T02:24:43.222Z,63.00
2019-02-15T02:27:11.022Z,62.60
2019-02-15T02:29:38.757Z,63.00
2019-02-15T02:32:06.481Z,63.00
2019-02-15T02:34:34.227Z,62.50
2019-02-15T02:37:02.665Z,62.00
2019-02-15T02:39:30.536Z,62.50
2019-02-15T02:41:58.341Z,63.00
2019-02-15T02:44:26.150Z,62.90
2019-02-15T02:46:53.866Z,62.70
2019-02-15T02:49:21.889Z,63.60
2019-02-15T02:51:49.578Z,63.90
2019-02-15T02:54:17.322Z,64.10
2019-02-15T02:56:45.037Z,64.40
2019-02-15T02:59:12.822Z,63.90
2019-02-15T03:01:40.549Z,64.00
2019-02-15T03:04:08.291Z,63.20
2019-02-15T03:06:36.037Z,62.00
2019-02-15T03:09:05.569Z,61.30
2019-02-15T03:11:33.321Z,60.10
2019-02-15T03:14:11.164Z,60.90
2019-02-15T03:16:30.661Z,61.10
2019-02-15T03:18:58.405Z,61.70
2019-02-15T03:21:26.166Z,61.60
2019-02-15T03:23:53.902Z,61.40
2019-02-15T03:26:21.609Z,60.30
2019-02-15T03:28:49.360Z,60.70
2019-02-15T03:31:17.081Z,60.80
2019-02-15T03:33:44.801Z,60.80
2019-02-15T03:36:20.772Z,61.20
2019-02-15T03:38:53.633Z,60.40
2019-02-15T03:41:32.465Z,59.90
2019-02-15T03:44:00.198Z,59.40
2019-02-15T03:46:27.901Z,58.80
2019-02-15T03:48:55.670Z,58.70
2019-02-15T03:51:23.407Z,58.40
2019-02-15T03:53:51.116Z,58.10
2019-02-15T03:56:18.849Z,57.80
2019-02-15T03:58:46.575Z,57.70
2019-02-15T04:01:14.325Z,57.50
2019-02-15T04:03:42.073Z,57.50
2019-02-15T04:06:09.790Z,57.30
2019-02-15T04:08:37.511Z,57.60
2019-02-15T04:11:05.301Z,56.80
2019-02-15T04:13:33.013Z,57.30
2019-02-15T04:16:00.742Z,57.40
2019-02-15T04:18:28.569Z,57.30
2019-02-15T04:20:56.319Z,57.40
2019-02-15T04:23:24.045Z,57.60
2019-02-15T04:25:51.782Z,57.40
2019-02-15T04:28:19.507Z,57.40
2019-02-15T04:30:47.233Z,57.10
2019-02-15T04:33:14.974Z,56.90
2019-02-15T04:35:42.717Z,57.20
2019-02-15T04:38:10.461Z,57.10
2019-02-15T04:40:38.228Z,56.20
2019-02-15T04:43:05.942Z,56.30
2019-02-15T04:45:33.668Z,56.00
2019-02-15T04:48:01.463Z,55.70
2019-02-15T04:50:29.189Z,55.30
2019-02-15T04:52:56.921Z,55.70
2019-02-15T04:55:24.678Z,55.00
2019-02-15T04:57:52.403Z,54.60
2019-02-15T05:00:20.108Z,54.70
2019-02-15T05:02:47.882Z,54.60
2019-02-15T05:05:15.613Z,54.10
2019-02-15T05:07:43.346Z,54.10
2019-02-15T05:10:11.101Z,53.90
2019-02-15T05:12:38.846Z,53.10
2019-02-15T05:15:06.668Z,53.10
2019-02-15T05:17:34.442Z,53.20
2019-02-15T05:20:03.215Z,52.80
2019-02-15T05:22:31.024Z,52.70
2019-02-15T05:24:58.775Z,52.80
2019-02-15T05:27:26.485Z,52.90
2019-02-15T05:29:54.211Z,52.40
2019-02-15T05:32:21.992Z,52.50
2019-02-15T05:34:49.709Z,51.90
2019-02-15T05:37:17.425Z,51.80
2019-02-15T05:39:45.176Z,51.80
2019-02-15T05:42:12.885Z,51.40
2019-02-15T05:44:40.609Z,51.50
2019-02-15T05:47:08.357Z,51.40
2019-02-15T05:49:36.067Z,51.80
2019-02-15T05:52:03.776Z,51.80
2019-02-15T05:54:31.518Z,51.70
2019-02-15T05:56:59.250Z,51.60
2019-02-15T05:59:26.974Z,52.30
2019-02-15T06:01:54.710Z,52.60
2019-02-15T06:04:22.453Z,53.00
2019-02-15T06:06:50.210Z,53.10
2019-02-15T06:09:17.969Z,53.30
2019-02-15T06:11:45.694Z,53.60
2019-02-15T06:14:13.553Z,53.80
2019-02-15T06:16:41.295Z,53.60
2019-02-15T06:19:09.018Z,53.60
2019-02-15T06:21:36.823Z,54.10
2019-02-15T06:24:04.557Z,55.10
2019-02-15T06:26:32.300Z,55.00
2019-02-15T06:29:00.015Z,54.90
2019-02-15T06:31:27.765Z,55.10
2019-02-15T06:33:55.473Z,54.80
2019-02-15T06:36:25.045Z,53.80
2019-02-15T06:38:52.832Z,55.00
2019-02-15T06:41:20.577Z,54.30
2019-02-15T06:43:48.330Z,54.00
2019-02-15T06:46:16.089Z,54.20
2019-02-15T06:48:43.790Z,54.30
2019-02-15T06:51:11.925Z,54.60
2019-02-15T06:53:39.686Z,54.50
2019-02-15T06:56:07.415Z,54.50
2019-02-15T06:58:45.465Z,53.70
2019-02-15T07:01:24.689Z,53.10
2019-02-15T07:04:00.923Z,53.30
2019-02-15T07:06:28.657Z,53.50
2019-02-15T07:08:56.368Z,53.70
2019-02-15T07:11:24.085Z,53.10
2019-02-15T07:13:51.833Z,53.30
2019-02-15T07:16:19.548Z,53.30
2019-02-15T07:18:47.301Z,53.70
2019-02-15T07:21:15.031Z,54.10
2019-02-15T07:23:42.801Z,54.80
2019-02-15T07:26:10.529Z,54.90
2019-02-15T07:28:38.281Z,55.10
2019-02-15T07:31:06.053Z,55.30
2019-02-15T07:33:33.783Z,55.30
2019-02-15T07:36:01.517Z,55.00
2019-02-15T07:38:29.224Z,54.50
2019-02-15T07:40:56.942Z,54.90
2019-02-15T07:43:24.685Z,54.70
2019-02-15T07:45:52.397Z,54.50
2019-02-15T07:48:20.115Z,54.80
2019-02-15T07:50:47.880Z,53.40
2019-02-15T07:53:15.600Z,53.20
2019-02-15T07:55:43.719Z,53.10
2019-02-15T07:58:11.469Z,53.00
2019-02-15T08:00:39.209Z,52.50
2019-02-15T08:03:06.961Z,52.50
2019-02-15T08:05:34.715Z,52.00
2019-02-15T08:08:02.431Z,52.20
2019-02-15T08:10:30.149Z,51.40
2019-02-15T08:12:57.942Z,51.40
2019-02-15T08:15:25.677Z,51.40
2019-02-15T08:17:53.409Z,50.90
2019-02-15T08:20:21.161Z,51.20
2019-02-15T08:22:48.902Z,51.00
2019-02-15T08:25:16.693Z,50.80
2019-02-15T08:27:44.491Z,51.10
2019-02-15T08:30:12.206Z,50.90
2019-02-15T08:32:39.988Z,51.00
2019-02-15T08:35:08.309Z,50.30
2019-02-15T08:37:36.034Z,50.00
2019-02-15T08:40:04.497Z,49.10
2019-02-15T08:42:32.301Z,49.50
2019-02-15T08:44:59.963Z,49.10
2019-02-15T08:47:27.686Z,48.70
2019-02-15T08:49:55.713Z,48.90
2019-02-15T08:52:23.455Z,48.20
2019-02-15T08:54:51.241Z,48.20
2019-02-15T08:57:18.987Z,47.60
2019-02-15T08:59:46.697Z,47.40
2019-02-15T09:02:32.251Z,47.20
2019-02-15T09:05:01.889Z,47.30
2019-02-15T09:07:29.529Z,47.20
2019-02-15T09:09:57.368Z,47.00
2019-02-15T09:12:25.094Z,47.10
2019-02-15T09:14:52.809Z,46.90
2019-02-15T09:17:20.569Z,47.00
2019-02-15T09:19:48.272Z,46.60
2019-02-15T09:22:15.989Z,46.60
2019-02-15T09:24:43.740Z,46.80
2019-02-15T09:27:34.017Z,47.10
2019-02-15T09:30:01.761Z,46.80
2019-02-15T09:32:29.566Z,46.10
2019-02-15T09:34:57.203Z,46.00
2019-02-15T09:37:24.969Z,46.30
2019-02-15T09:39:52.681Z,45.90
2019-02-15T09:42:20.429Z,45.90
2019-02-15T09:44:48.141Z,45.80
2019-02-15T09:47:15.862Z,45.50
2019-02-15T09:49:45.193Z,45.20
2019-02-15T09:52:13.135Z,44.70
2019-02-15T09:54:40.841Z,45.10
2019-02-15T09:57:08.563Z,45.30
2019-02-15T09:59:36.366Z,45.30
2019-02-15T10:02:04.090Z,45.10
2019-02-15T10:04:31.854Z,45.00
2019-02-15T10:06:59.779Z,44.20
2019-02-15T10:09:27.488Z,43.90
2019-02-15T10:11:55.245Z,45.00
2019-02-15T10:14:23.009Z,44.20
2019-02-15T10:16:50.752Z,43.80
2019-02-15T10:19:22.336Z,43.80
2019-02-15T10:21:48.089Z,43.80
2019-02-15T10:24:15.808Z,43.90
2019-02-15T10:26:43.566Z,43.00
2019-02-15T10:29:11.821Z,43.20
2019-02-15T10:31:39.537Z,43.30
2019-02-15T10:34:07.302Z,42.80
2019-02-15T10:36:35.105Z,42.70
2019-02-15T10:39:04.277Z,42.00
2019-02-15T10:41:32.044Z,42.40
2019-02-15T10:43:59.742Z,41.90
2019-02-15T10:46:27.516Z,42.20
2019-02-15T10:48:55.294Z,41.90
2019-02-15T10:51:23.009Z,41.20
2019-02-15T10:53:50.713Z,41.10
2019-02-15T10:56:18.441Z,40.50
2019-02-15T10:58:46.152Z,40.30
2019-02-15T11:01:13.901Z,40.60
2019-02-15T11:03:41.582Z,39.70
2019-02-15T11:06:09.321Z,39.20
2019-02-15T11:08:37.049Z,38.80
2019-02-15T11:11:04.810Z,37.90
2019-02-15T11:13:32.512Z,34.50
2019-02-15T11:16:00.210Z,33.80
2019-02-15T11:18:27.983Z,34.00
2019-02-15T11:20:55.761Z,36.70
2019-02-15T11:23:23.484Z,36.90
2019-02-15T11:25:51.241Z,37.50
2019-02-15T11:28:18.949Z,38.00
2019-02-15T11:30:46.804Z,39.00
2019-02-15T11:33:14.541Z,38.30
2019-02-15T11:35:42.257Z,38.00
2019-02-15T11:38:09.994Z,37.70
2019-02-15T11:40:37.734Z,37.10
2019-02-15T11:43:05.539Z,36.90
2019-02-15T11:45:33.249Z,37.00
2019-02-15T11:48:00.981Z,36.30
2019-02-15T11:50:28.683Z,36.90
2019-02-15T11:52:56.416Z,37.40
2019-02-15T11:55:24.224Z,37.30
2019-02-15T11:57:51.933Z,37.30
2019-02-15T12:00:24.901Z,38.20
2019-02-15T12:02:53.295Z,41.10
2019-02-15T12:05:21.017Z,41.70
2019-02-15T12:07:48.733Z,40.60
2019-02-15T12:10:16.529Z,40.70
2019-02-15T12:12:44.255Z,40.80
2019-02-15T12:15:12.004Z,40.90
2019-02-15T12:17:39.696Z,41.00
2019-02-15T12:20:08.305Z,41.40
2019-02-15T12:22:36.038Z,41.20
2019-02-15T12:25:03.801Z,40.20
2019-02-15T12:27:31.533Z,40.30
2019-02-15T12:30:01.784Z,39.70
2019-02-15T12:32:31.389Z,40.40
2019-02-15T12:34:59.214Z,40.20
2019-02-15T12:37:26.926Z,39.70
2019-02-15T12:39:54.693Z,39.30
2019-02-15T12:42:22.431Z,39.40
2019-02-15T12:44:50.145Z,39.70
2019-02-15T12:47:17.874Z,39.20
2019-02-15T12:50:05.953Z,39.50
2019-02-15T12:52:33.733Z,39.00
2019-02-15T12:55:03.272Z,39.40
2019-02-15T12:57:31.029Z,39.40
2019-02-15T12:59:58.681Z,39.30
2019-02-15T13:02:26.396Z,38.50
2019-02-15T13:04:54.138Z,38.50
2019-02-15T13:07:21.886Z,38.30
2019-02-15T13:09:49.580Z,38.10
2019-02-15T13:12:17.317Z,38.20
2019-02-15T13:14:45.049Z,37.80
2019-02-15T13:17:12.767Z,37.60
2019-02-15T13:19:40.522Z,37.60
2019-02-15T13:22:08.305Z,37.50
2019-02-15T13:24:36.048Z,38.50
2019-02-15T13:27:03.785Z,38.50
2019-02-15T13:29:31.539Z,37.80
2019-02-15T13:31:59.263Z,38.50
2019-02-15T13:34:26.993Z,38.30
2019-02-15T13:36:54.745Z,38.00
2019-02-15T13:39:22.469Z,37.20
2019-02-15T13:41:50.194Z,37.70
2019-02-15T13:44:17.993Z,37.20
2019-02-15T13:46:45.674Z,37.00
2019-02-15T13:49:13.378Z,36.20
2019-02-15T13:51:41.143Z,36.50
2019-02-15T13:54:08.911Z,37.10
2019-02-15T13:56:36.657Z,37.40
2019-02-15T13:59:04.369Z,37.50
2019-02-15T14:01:32.093Z,37.10
2019-02-15T14:03:59.830Z,37.10
2019-02-15T14:06:27.558Z,37.60
2019-02-15T14:08:55.297Z,38.20
2019-02-15T14:11:23.098Z,38.30
2019-02-15T14:13:51.023Z,38.70
2019-02-15T14:16:18.697Z,38.40
2019-02-15T14:18:46.446Z,38.40
2019-02-15T14:21:14.237Z,38.50
2019-02-15T14:23:41.958Z,39.30
2019-02-15T14:26:09.692Z,39.90
2019-02-15T14:28:37.414Z,40.40
2019-02-15T14:31:05.238Z,40.40
2019-02-15T14:33:32.926Z,39.20
2019-02-15T14:36:00.685Z,39.70
2019-02-15T14:38:28.437Z,40.80
2019-02-15T14:40:56.157Z,41.40
2019-02-15T14:43:23.938Z,40.90
2019-02-15T14:45:51.655Z,41.40
2019-02-15T14:48:20.157Z,41.80
2019-02-15T14:50:48.094Z,43.20
2019-02-15T14:53:15.879Z,43.40
2019-02-15T14:55:43.613Z,43.00
2019-02-15T14:58:11.354Z,42.90
2019-02-15T15:00:39.073Z,43.40
2019-02-15T15:03:06.870Z,43.70
2019-02-15T15:05:34.642Z,44.00
2019-02-15T15:08:02.489Z,44.60
2019-02-15T15:10:30.209Z,45.10
2019-02-15T15:12:57.963Z,46.10
2019-02-15T15:15:25.700Z,46.20
2019-02-15T15:18:06.004Z,46.40
2019-02-15T15:20:24.816Z,47.00
2019-02-15T15:22:53.092Z,46.80
2019-02-15T15:25:20.826Z,46.40
2019-02-15T15:27:48.578Z,46.50
2019-02-15T15:30:16.448Z,46.30
2019-02-15T15:32:44.205Z,46.80
2019-02-15T15:35:11.963Z,48.10
2019-02-15T15:37:40.325Z,48.40
2019-02-15T15:40:10.151Z,48.10
2019-02-15T15:42:37.883Z,48.10
2019-02-15T15:45:06.449Z,48.60
2019-02-15T15:47:34.217Z,48.10
2019-02-15T15:50:01.941Z,48.50
2019-02-15T15:52:29.717Z,49.00
2019-02-15T15:54:57.426Z,49.60
2019-02-15T15:57:25.185Z,49.80
2019-02-15T15:59:53.281Z,50.10
2019-02-15T16:02:21.009Z,50.20
2019-02-15T16:04:48.770Z,50.50
2019-02-15T16:07:16.572Z,50.80
2019-02-15T16:09:44.331Z,51.20
2019-02-15T16:12:12.073Z,51.30
2019-02-15T16:14:39.813Z,51.80
2019-02-15T16:17:07.557Z,51.30
2019-02-15T16:19:40.540Z,52.00
2019-02-15T16:22:04.844Z,52.30
2019-02-15T16:24:32.565Z,52.70
2019-02-15T16:27:00.301Z,53.40
2019-02-15T16:29:28.086Z,53.60
2019-02-15T16:31:55.881Z,53.90
2019-02-15T16:34:23.636Z,53.60
2019-02-15T16:36:51.533Z,54.00
2019-02-15T16:39:19.329Z,54.60
2019-02-15T16:41:47.057Z,55.30
2019-02-15T16:44:14.920Z,55.30
2019-02-15T16:46:42.756Z,55.70
2019-02-15T16:49:10.472Z,56.10
2019-02-15T16:51:38.207Z,56.60
2019-02-15T16:54:05.970Z,57.20
2019-02-15T16:56:33.730Z,57.60
2019-02-15T16:59:02.470Z,58.20
2019-02-15T17:01:30.236Z,58.90
2019-02-15T17:03:58.289Z,59.40
2019-02-15T17:06:26.038Z,60.00
2019-02-15T17:08:53.765Z,60.70
2019-02-15T17:11:21.518Z,61.40
2019-02-15T17:13:49.391Z,62.00
2019-02-15T17:16:17.095Z,62.70
2019-02-15T17:18:51.432Z,63.80
2019-02-15T17:21:14.346Z,64.60
2019-02-15T17:23:42.057Z,65.50
2019-02-15T17:26:09.839Z,66.30
2019-02-15T17:28:37.743Z,66.90
2019-02-15T17:31:05.461Z,67.50
2019-02-15T17:33:33.915Z,68.20
2019-02-15T17:36:01.641Z,69.10
2019-02-15T17:38:29.365Z,69.70
2019-02-15T17:40:57.109Z,70.40
2019-02-15T17:43:24.820Z,71.40
2019-02-15T17:45:52.521Z,72.50
2019-02-15T17:48:20.271Z,73.50
2019-02-15T17:50:48.007Z,74.40
2019-02-15T17:53:15.737Z,75.50
2019-02-15T17:55:43.474Z,76.30
2019-02-15T17:58:11.181Z,77.30
2019-02-15T18:00:38.895Z,79.40
2019-02-15T18:03:06.679Z,80.20
2019-02-15T18:05:34.413Z,80.90
2019-02-15T18:08:02.117Z,81.40
2019-02-15T18:10:29.865Z,81.90
2019-02-15T18:12:57.602Z,82.00
2019-02-15T18:15:25.313Z,82.40
2019-02-15T18:17:53.033Z,83.00
2019-02-15T18:20:20.753Z,83.20
2019-02-15T18:22:48.458Z,83.70
2019-02-15T18:25:16.222Z,84.00
2019-02-15T18:27:43.974Z,84.40
2019-02-15T18:30:11.945Z,84.90
2019-02-15T18:32:39.693Z,85.30
2019-02-15T18:35:07.480Z,85.60
2019-02-15T18:37:35.190Z,86.30
2019-02-15T18:40:03.409Z,86.50
2019-02-15T18:42:31.163Z,87.10
2019-02-15T18:44:59.766Z,87.80
2019-02-15T18:47:27.521Z,88.50
2019-02-15T18:49:55.233Z,89.00
2019-02-15T18:52:22.957Z,89.30
2019-02-15T18:54:50.673Z,89.20
2019-02-15T18:57:18.413Z,89.90
2019-02-15T18:59:47.460Z,90.20
2019-02-15T19:02:15.150Z,90.50
2019-02-15T19:04:42.866Z,90.50
2019-02-15T19:07:10.577Z,90.70
2019-02-15T19:09:38.289Z,90.60
2019-02-15T19:12:06.037Z,90.60
2019-02-15T19:14:33.745Z,90.20
2019-02-15T19:17:01.495Z,90.20
2019-02-15T19:19:29.484Z,86.80
2019-02-15T19:21:57.263Z,88.40
2019-02-15T19:24:24.981Z,80.20
2019-02-15T19:26:52.753Z,78.40
2019-02-15T19:29:20.465Z,82.00
2019-02-15T19:31:48.277Z,78.40
2019-02-15T19:34:16.065Z,76.10
2019-02-15T19:36:43.789Z,77.30
2019-02-15T19:39:11.573Z,76.90
2019-02-15T19:41:39.301Z,77.70
2019-02-15T19:44:07.051Z,79.60
2019-02-15T19:46:34.761Z,81.40
2019-02-15T19:49:02.552Z,82.60
2019-02-15T19:51:30.333Z,85.10
2019-02-15T19:53:58.359Z,86.20
2019-02-15T19:56:26.096Z,88.30
2019-02-15T19:58:53.837Z,88.70
2019-02-15T20:01:21.570Z,88.20
2019-02-15T20:03:49.285Z,88.50
2019-02-15T20:06:17.382Z,88.50
2019-02-15T20:08:45.166Z,88.80
2019-02-15T20:11:12.877Z,89.40
2019-02-15T20:13:40.625Z,89.90
2019-02-15T20:16:08.359Z,90.20
2019-02-15T20:18:36.063Z,90.30
2019-02-15T20:21:03.873Z,90.40
2019-02-15T20:23:31.589Z,90.60
2019-02-15T20:25:59.337Z,90.70
2019-02-15T20:28:27.105Z,90.80
2019-02-15T20:30:54.820Z,91.00
2019-02-15T20:33:22.599Z,91.10
2019-02-15T20:35:50.376Z,91.20
2019-02-15T20:38:18.122Z,91.20
2019-02-15T20:40:45.851Z,91.30
2019-02-15T20:43:13.637Z,91.50
2019-02-15T20:45:41.347Z,91.70
2019-02-15T20:48:11.896Z,91.80
2019-02-15T20:50:38.624Z,91.90
2019-02-15T20:53:06.397Z,92.10
2019-02-15T20:55:34.131Z,92.10
2019-02-15T20:58:01.886Z,92.20
2019-02-15T21:00:29.721Z,92.30
2019-02-15T21:02:57.432Z,92.40
2019-02-15T21:05:25.157Z,92.40
2019-02-15T21:07:52.865Z,92.60
2019-02-15T21:10:20.592Z,92.70
2019-02-15T21:12:48.322Z,92.70
2019-02-15T21:15:16.065Z,92.60
2019-02-15T21:17:43.813Z,92.60
2019-02-15T21:23:43.234Z,92.60
2019-02-15T21:26:10.938Z,92.70
2019-02-15T21:28:38.797Z,92.70
2019-02-15T21:31:06.545Z,92.80
2019-02-15T21:33:34.321Z,92.90
2019-02-15T21:36:02.134Z,92.80
2019-02-15T21:38:30.012Z,92.80
2019-02-15T21:40:57.735Z,92.90
2019-02-15T21:43:25.588Z,92.90
2019-02-15T21:45:53.357Z,93.00
2019-02-15T21:48:21.186Z,93.20
2019-02-15T21:50:48.949Z,93.10
2019-02-15T21:53:16.787Z,93.20
2019-02-15T21:55:44.577Z,93.20
2019-02-15T21:58:12.486Z,93.30
2019-02-15T22:00:40.238Z,93.30
2019-02-15T22:03:07.962Z,93.60
2019-02-15T22:05:35.849Z,93.70
2019-02-15T22:08:03.593Z,93.70
2019-02-15T22:10:31.353Z,93.60
2019-02-15T22:12:59.051Z,93.70
2019-02-15T22:15:26.971Z,93.70
2019-02-15T22:17:54.618Z,93.70
2019-02-15T22:20:26.816Z,93.80
2019-02-15T22:22:51.946Z,93.90
2019-02-15T22:25:19.808Z,94.00
2019-02-15T22:27:48.549Z,94.00
2019-02-15T22:30:16.355Z,94.00
2019-02-15T22:32:44.180Z,94.00
2019-02-15T22:35:12.113Z,94.10
2019-02-15T22:37:39.858Z,94.10
2019-02-15T22:40:31.007Z,94.00
2019-02-15T22:43:10.006Z,94.00
2019-02-15T22:45:37.761Z,93.80
2019-02-15T22:48:05.482Z,93.80
2019-02-15T22:50:35.963Z,93.80
2019-02-15T22:53:02.843Z,93.80
2019-02-15T22:55:30.557Z,94.10
2019-02-15T22:57:58.281Z,94.20
2019-02-15T23:00:39.258Z,94.20
2019-02-15T23:03:06.997Z,94.30
2019-02-15T23:05:34.826Z,94.30
2019-02-15T23:08:02.553Z,94.20
2019-02-15T23:10:30.280Z,94.20
2019-02-15T23:12:58.007Z,94.30
2019-02-15T23:15:25.721Z,94.20
2019-02-15T23:17:53.453Z,94.00
2019-02-15T23:20:21.173Z,94.10
2019-02-15T23:22:48.905Z,94.30
2019-02-15T23:25:16.653Z,94.40
2019-02-15T23:27:44.397Z,94.30
2019-02-15T23:30:12.197Z,94.40
2019-02-15T23:32:39.953Z,94.30
2019-02-15T23:35:07.657Z,94.40
2019-02-15T23:37:35.491Z,94.40
2019-02-15T23:40:03.453Z,94.40
2019-02-15T23:42:31.161Z,94.40
2019-02-15T23:44:58.946Z,94.30
2019-02-15T23:47:26.622Z,94.30
2019-02-15T23:49:54.388Z,94.50
2019-02-15T23:52:22.150Z,94.60
2019-02-15T23:54:49.855Z,94.60
2019-02-15T23:57:17.581Z,94.70
2019-02-15T23:59:45.334Z,94.80
